createdAt,value
2017-03-18T00:00:52.003Z,0
2017-03-18T00:01:51.721Z,0
2017-03-18T00:02:51.741Z,0
2017-03-18T00:03:52.332Z,0
2017-03-18T00:04:52.110Z,0
2017-03-18T00:05:51.830Z,0
2017-03-18T00:06:52.496Z,0
2017-03-18T00:07:52.505Z,0
2017-03-18T00:08:52.813Z,0
2017-03-18T00:09:52.562Z,0
2017-03-18T00:10:52.594Z,0
2017-03-18T00:11:51.989Z,0
2017-03-18T00:12:52.639Z,0
2017-03-18T00:13:52.309Z,0
2017-03-18T00:14:52.077Z,0
2017-03-18T00:15:52.106Z,0
2017-03-18T00:16:52.443Z,0
2017-03-18T00:17:52.476Z,0
2017-03-18T00:18:52.441Z,0
2017-03-18T00:19:52.218Z,0
2017-03-18T00:20:52.865Z,0
2017-03-18T00:21:52.923Z,0
2017-03-18T00:22:52.916Z,0
2017-03-18T00:23:53.217Z,0
2017-03-18T00:24:52.668Z,0
2017-03-18T00:25:52.374Z,0
2017-03-18T00:26:52.410Z,0
2017-03-18T00:27:52.771Z,0
2017-03-18T00:28:52.789Z,0
2017-03-18T00:29:52.792Z,0
2017-03-18T00:30:52.833Z,0
2017-03-18T00:31:52.862Z,0
2017-03-18T00:32:52.887Z,0
2017-03-18T00:33:52.596Z,0
2017-03-18T00:34:53.201Z,0
2017-03-18T00:35:53.282Z,0
2017-03-18T00:36:52.996Z,0
2017-03-18T00:37:53.015Z,0
2017-03-18T00:38:53.088Z,0
2017-03-18T00:39:53.335Z,0
2017-03-18T00:40:53.110Z,0
2017-03-18T00:41:53.129Z,0
2017-03-18T00:42:52.850Z,0
2017-03-18T00:43:53.503Z,0
2017-03-18T00:44:53.156Z,0
2017-03-18T00:45:52.938Z,0
2017-03-18T00:46:53.272Z,0
2017-03-18T00:47:53.611Z,0
2017-03-18T00:48:53.648Z,0
2017-03-18T00:49:53.604Z,0
2017-03-18T00:50:52.748Z,0
2017-03-18T00:51:53.408Z,0
2017-03-18T00:52:53.434Z,0
2017-03-18T00:53:53.152Z,0
2017-03-18T00:54:53.428Z,0
2017-03-18T00:55:53.200Z,0
2017-03-18T00:56:53.554Z,0
2017-03-18T00:57:53.614Z,0
2017-03-18T00:58:53.286Z,0
2017-03-18T00:59:53.884Z,0
2017-03-18T01:00:53.964Z,0
2017-03-18T01:01:53.369Z,0
2017-03-18T01:02:53.714Z,0
2017-03-18T01:03:53.743Z,0
2017-03-18T01:04:54.023Z,0
2017-03-18T01:05:53.171Z,0
2017-03-18T01:06:53.833Z,0
2017-03-18T01:07:53.900Z,0
2017-03-18T01:08:53.570Z,0
2017-03-18T01:09:54.155Z,0
2017-03-18T01:10:53.619Z,0
2017-03-18T01:11:53.964Z,0
2017-03-18T01:12:53.994Z,0
2017-03-18T01:13:54.010Z,0
2017-03-18T01:14:54.613Z,0
2017-03-18T01:15:54.379Z,0
2017-03-18T01:16:53.780Z,0
2017-03-18T01:17:53.805Z,0
2017-03-18T01:18:53.841Z,0
2017-03-18T01:19:54.115Z,0
2017-03-18T01:20:53.590Z,0
2017-03-18T01:21:54.232Z,0
2017-03-18T01:22:54.265Z,0
2017-03-18T01:23:53.978Z,0
2017-03-18T01:24:54.884Z,0
2017-03-18T01:25:54.342Z,0
2017-03-18T01:26:54.679Z,0
2017-03-18T01:27:54.396Z,0
2017-03-18T01:28:54.116Z,0
2017-03-18T01:29:54.706Z,0
2017-03-18T01:30:54.482Z,0
2017-03-18T01:31:54.819Z,0
2017-03-18T01:32:54.228Z,0
2017-03-18T01:33:54.894Z,0
2017-03-18T01:34:54.852Z,0
2017-03-18T01:35:54.939Z,0
2017-03-18T01:36:54.647Z,0
2017-03-18T01:37:54.989Z,0
2017-03-18T01:38:54.709Z,0
2017-03-18T01:39:54.990Z,0
2017-03-18T01:40:55.061Z,0
2017-03-18T01:41:54.462Z,0
2017-03-18T01:42:54.501Z,0
2017-03-18T01:43:54.521Z,0
2017-03-18T01:44:55.113Z,0
2017-03-18T01:45:54.581Z,0
2017-03-18T01:46:54.606Z,0
2017-03-18T01:47:55.259Z,0
2017-03-18T01:48:54.657Z,0
2017-03-18T01:49:55.258Z,0
2017-03-18T01:50:55.345Z,0
2017-03-18T01:51:55.371Z,0
2017-03-18T01:52:55.395Z,0
2017-03-18T01:53:55.116Z,0
2017-03-18T01:54:55.397Z,0
2017-03-18T01:55:54.537Z,0
2017-03-18T01:56:54.885Z,0
2017-03-18T01:57:55.222Z,0
2017-03-18T01:58:54.936Z,0
2017-03-18T01:59:55.560Z,0
2017-03-18T02:00:55.302Z,0
2017-03-18T02:01:55.015Z,0
2017-03-18T02:02:55.662Z,0
2017-03-18T02:03:55.695Z,0
2017-03-18T02:04:55.994Z,0
2017-03-18T02:05:55.157Z,0
2017-03-18T02:06:55.773Z,0
2017-03-18T02:07:55.190Z,0
2017-03-18T02:08:55.215Z,0
2017-03-18T02:09:55.548Z,0
2017-03-18T02:10:55.268Z,0
2017-03-18T02:11:55.604Z,0
2017-03-18T02:12:55.637Z,0
2017-03-18T02:13:55.971Z,0
2017-03-18T02:14:55.692Z,0
2017-03-18T02:15:56.280Z,0
2017-03-18T02:16:56.052Z,0
2017-03-18T02:17:55.769Z,0
2017-03-18T02:18:55.802Z,0
2017-03-18T02:19:55.511Z,0
2017-03-18T02:20:56.403Z,0
2017-03-18T02:21:55.564Z,0
2017-03-18T02:22:55.909Z,0
2017-03-18T02:23:55.925Z,0
2017-03-18T02:24:55.655Z,0
2017-03-18T02:25:56.239Z,0
2017-03-18T02:26:56.004Z,0
2017-03-18T02:27:56.041Z,0
2017-03-18T02:28:56.378Z,0
2017-03-18T02:29:56.099Z,0
2017-03-18T02:30:56.063Z,0
2017-03-18T02:31:56.175Z,0
2017-03-18T02:32:56.520Z,0
2017-03-18T02:33:55.885Z,0
2017-03-18T02:34:56.226Z,0
2017-03-18T02:35:56.192Z,0
2017-03-18T02:36:55.973Z,0
2017-03-18T02:37:55.993Z,0
2017-03-18T02:38:56.662Z,0
2017-03-18T02:39:56.362Z,0
2017-03-18T02:40:56.958Z,0
2017-03-18T02:41:56.726Z,0
2017-03-18T02:42:56.760Z,0
2017-03-18T02:43:56.535Z,0
2017-03-18T02:44:56.822Z,0
2017-03-18T02:45:56.472Z,0
2017-03-18T02:46:56.255Z,0
2017-03-18T02:47:56.592Z,0
2017-03-18T02:48:56.301Z,0
2017-03-18T02:49:56.653Z,0
2017-03-18T02:50:56.606Z,0
2017-03-18T02:51:56.696Z,0
2017-03-18T02:52:57.040Z,0
2017-03-18T02:53:56.128Z,0
2017-03-18T02:54:56.774Z,0
2017-03-18T02:55:57.057Z,0
2017-03-18T02:56:56.510Z,0
2017-03-18T02:57:56.864Z,0
2017-03-18T02:58:56.260Z,0
2017-03-18T02:59:56.610Z,0
2017-03-18T03:00:57.190Z,0
2017-03-18T03:01:56.995Z,0
2017-03-18T03:02:57.300Z,0
2017-03-18T03:03:56.720Z,0
2017-03-18T03:04:57.041Z,0
2017-03-18T03:05:57.352Z,0
2017-03-18T03:06:56.786Z,0
2017-03-18T03:07:56.815Z,0
2017-03-18T03:08:57.160Z,0
2017-03-18T03:09:57.201Z,0
2017-03-18T03:10:57.481Z,0
2017-03-18T03:11:57.238Z,0
2017-03-18T03:12:56.651Z,0
2017-03-18T03:13:57.292Z,0
2017-03-18T03:14:57.630Z,0
2017-03-18T03:15:57.909Z,0
2017-03-18T03:16:57.375Z,0
2017-03-18T03:17:57.709Z,0
2017-03-18T03:18:57.440Z,0
2017-03-18T03:19:57.452Z,0
2017-03-18T03:20:58.045Z,0
2017-03-18T03:21:57.510Z,0
2017-03-18T03:22:57.222Z,0
2017-03-18T03:23:57.251Z,0
2017-03-18T03:24:57.901Z,0
2017-03-18T03:25:57.616Z,0
2017-03-18T03:26:57.645Z,0
2017-03-18T03:27:57.987Z,0
2017-03-18T03:28:57.698Z,0
2017-03-18T03:29:57.425Z,0
2017-03-18T03:30:57.739Z,0
2017-03-18T03:31:57.476Z,0
2017-03-18T03:32:57.830Z,0
2017-03-18T03:33:57.838Z,0
2017-03-18T03:34:57.866Z,0
2017-03-18T03:35:57.570Z,0
2017-03-18T03:36:57.597Z,0
2017-03-18T03:37:57.942Z,0
2017-03-18T03:38:58.286Z,0
2017-03-18T03:39:58.316Z,0
2017-03-18T03:40:57.390Z,0
2017-03-18T03:41:58.300Z,0
2017-03-18T03:42:57.761Z,0
2017-03-18T03:43:58.103Z,0
2017-03-18T03:44:57.507Z,0
2017-03-18T03:45:57.842Z,0
2017-03-18T03:46:58.124Z,0
2017-03-18T03:47:58.216Z,0
2017-03-18T03:48:57.961Z,0
2017-03-18T03:49:58.315Z,0
2017-03-18T03:50:58.603Z,0
2017-03-18T03:51:58.873Z,0
2017-03-18T03:52:58.668Z,0
2017-03-18T03:53:58.061Z,0
2017-03-18T03:54:58.407Z,0
2017-03-18T03:55:58.426Z,0
2017-03-18T03:56:58.396Z,0
2017-03-18T03:57:58.177Z,0
2017-03-18T03:58:58.209Z,0
2017-03-18T03:59:58.542Z,0
2017-03-18T04:00:58.254Z,0
2017-03-18T04:01:59.163Z,0
2017-03-18T04:02:58.940Z,0
2017-03-18T04:03:58.657Z,0
2017-03-18T04:04:59.002Z,0
2017-03-18T04:05:58.386Z,0
2017-03-18T04:06:58.676Z,0
2017-03-18T04:07:58.759Z,0
2017-03-18T04:08:58.169Z,0
2017-03-18T04:09:58.818Z,0
2017-03-18T04:10:58.530Z,0
2017-03-18T04:11:58.808Z,0
2017-03-18T04:12:58.896Z,0
2017-03-18T04:13:58.917Z,0
2017-03-18T04:14:59.261Z,0
2017-03-18T04:15:58.971Z,0
2017-03-18T04:16:59.259Z,0
2017-03-18T04:17:59.036Z,0
2017-03-18T04:18:58.745Z,0
2017-03-18T04:19:58.789Z,0
2017-03-18T04:20:59.105Z,0
2017-03-18T04:21:59.071Z,0
2017-03-18T04:22:58.841Z,0
2017-03-18T04:23:59.209Z,0
2017-03-18T04:24:59.221Z,0
2017-03-18T04:25:59.238Z,0
2017-03-18T04:26:59.834Z,0
2017-03-18T04:27:59.619Z,0
2017-03-18T04:28:59.328Z,0
2017-03-18T04:29:58.741Z,0
2017-03-18T04:30:59.057Z,0
2017-03-18T04:31:59.366Z,0
2017-03-18T04:32:59.750Z,0
2017-03-18T04:33:58.840Z,0
2017-03-18T04:34:59.525Z,0
2017-03-18T04:35:59.211Z,0
2017-03-18T04:36:59.786Z,0
2017-03-18T04:37:59.254Z,0
2017-03-18T04:38:59.915Z,0
2017-03-18T04:39:58.996Z,0
2017-03-18T04:40:59.647Z,0
2017-03-18T04:41:59.289Z,0
2017-03-18T04:42:59.383Z,0
2017-03-18T04:43:59.731Z,0
2017-03-18T04:44:59.444Z,0
2017-03-18T04:45:59.468Z,0
2017-03-18T04:47:00.059Z,0
2017-03-18T04:48:00.146Z,0
2017-03-18T04:49:00.171Z,0
2017-03-18T04:49:59.897Z,0
2017-03-18T04:50:59.916Z,0
2017-03-18T04:51:59.317Z,0
2017-03-18T04:52:59.663Z,0
2017-03-18T04:53:59.695Z,0
2017-03-18T04:54:59.715Z,0
2017-03-18T04:55:59.735Z,0
2017-03-18T04:57:00.080Z,0
2017-03-18T04:57:59.793Z,0
2017-03-18T04:59:00.441Z,0
2017-03-18T05:00:00.479Z,0
2017-03-18T05:01:00.183Z,0
2017-03-18T05:02:00.208Z,0
2017-03-18T05:02:59.930Z,0
2017-03-18T05:04:00.265Z,0
2017-03-18T05:05:00.002Z,0
2017-03-18T05:05:59.694Z,0
2017-03-18T05:07:00.352Z,0
2017-03-18T05:08:00.376Z,0
2017-03-18T05:09:00.405Z,0
2017-03-18T05:10:00.734Z,0
2017-03-18T05:11:00.457Z,0
2017-03-18T05:12:00.799Z,0
2017-03-18T05:12:59.889Z,0
2017-03-18T05:14:00.237Z,0
2017-03-18T05:15:00.566Z,0
2017-03-18T05:16:00.590Z,0
2017-03-18T05:17:00.620Z,0
2017-03-18T05:18:00.025Z,0
2017-03-18T05:19:00.669Z,0
2017-03-18T05:20:00.073Z,0
2017-03-18T05:21:00.422Z,0
2017-03-18T05:22:00.437Z,0
2017-03-18T05:23:01.028Z,0
2017-03-18T05:24:00.491Z,0
2017-03-18T05:25:00.513Z,0
2017-03-18T05:26:01.174Z,0
2017-03-18T05:27:00.570Z,0
2017-03-18T05:28:00.860Z,0
2017-03-18T05:29:00.626Z,0
2017-03-18T05:30:00.656Z,0
2017-03-18T05:31:00.677Z,0
2017-03-18T05:32:00.706Z,0
2017-03-18T05:33:00.988Z,4
2017-03-18T05:34:01.379Z,4
2017-03-18T05:35:00.781Z,4
2017-03-18T05:36:01.127Z,4
2017-03-18T05:37:01.150Z,4
2017-03-18T05:38:01.740Z,4
2017-03-18T05:39:00.584Z,4
2017-03-18T05:40:01.232Z,8
2017-03-18T05:41:00.942Z,8
2017-03-18T05:42:01.303Z,8
2017-03-18T05:43:01.263Z,8
2017-03-18T05:44:01.344Z,8
2017-03-18T05:45:01.672Z,8
2017-03-18T05:46:01.402Z,8
2017-03-18T05:47:01.742Z,8
2017-03-18T05:48:01.383Z,12
2017-03-18T05:49:01.165Z,12
2017-03-18T05:50:01.186Z,12
2017-03-18T05:51:01.526Z,12
2017-03-18T05:52:01.242Z,16
2017-03-18T05:53:02.165Z,16
2017-03-18T05:54:01.919Z,20
2017-03-18T05:55:01.332Z,16
2017-03-18T05:56:01.976Z,16
2017-03-18T05:57:01.998Z,16
2017-03-18T05:58:01.972Z,20
2017-03-18T05:59:01.739Z,24
2017-03-18T06:00:01.768Z,20
2017-03-18T06:01:01.791Z,20
2017-03-18T06:02:02.153Z,28
2017-03-18T06:03:01.490Z,24
2017-03-18T06:04:01.250Z,28
2017-03-18T06:05:01.599Z,28
2017-03-18T06:06:01.616Z,32
2017-03-18T06:07:01.966Z,32
2017-03-18T06:08:01.927Z,32
2017-03-18T06:09:01.694Z,32
2017-03-18T06:10:02.353Z,36
2017-03-18T06:11:02.368Z,40
2017-03-18T06:12:02.401Z,40
2017-03-18T06:13:02.369Z,48
2017-03-18T06:14:01.834Z,52
2017-03-18T06:15:01.862Z,56
2017-03-18T06:16:01.887Z,56
2017-03-18T06:17:01.908Z,64
2017-03-18T06:18:02.193Z,64
2017-03-18T06:19:01.654Z,64
2017-03-18T06:20:02.310Z,60
2017-03-18T06:21:02.330Z,80
2017-03-18T06:22:02.044Z,72
2017-03-18T06:23:02.637Z,68
2017-03-18T06:24:02.722Z,64
2017-03-18T06:25:02.439Z,84
2017-03-18T06:26:02.480Z,80
2017-03-18T06:27:02.184Z,72
2017-03-18T06:28:02.810Z,96
2017-03-18T06:29:02.242Z,100
2017-03-18T06:30:02.263Z,96
2017-03-18T06:31:02.603Z,80
2017-03-18T06:32:02.003Z,92
2017-03-18T06:33:03.230Z,112
2017-03-18T06:34:02.694Z,124
2017-03-18T06:35:02.404Z,136
2017-03-18T06:36:02.744Z,104
2017-03-18T06:37:03.066Z,128
2017-03-18T06:38:02.797Z,120
2017-03-18T06:39:02.818Z,116
2017-03-18T06:40:02.529Z,140
2017-03-18T06:41:02.875Z,148
2017-03-18T06:42:02.899Z,156
2017-03-18T06:43:02.928Z,164
2017-03-18T06:44:02.958Z,184
2017-03-18T06:45:02.990Z,152
2017-03-18T06:46:03.354Z,128
2017-03-18T06:47:03.060Z,132
2017-03-18T06:48:03.077Z,152
2017-03-18T06:49:02.821Z,180
2017-03-18T06:50:03.427Z,160
2017-03-18T06:51:03.139Z,152
2017-03-18T06:52:03.165Z,160
2017-03-18T06:53:03.518Z,176
2017-03-18T06:54:03.220Z,188
2017-03-18T06:55:03.263Z,164
2017-03-18T06:56:03.275Z,208
2017-03-18T06:57:02.991Z,180
2017-03-18T06:58:03.336Z,160
2017-03-18T06:59:03.301Z,188
2017-03-18T07:00:03.700Z,224
2017-03-18T07:01:03.725Z,236
2017-03-18T07:02:03.123Z,192
2017-03-18T07:03:03.467Z,236
2017-03-18T07:04:03.744Z,212
2017-03-18T07:05:03.524Z,208
2017-03-18T07:06:03.551Z,236
2017-03-18T07:07:03.888Z,336
2017-03-18T07:08:03.296Z,304
2017-03-18T07:09:03.571Z,276
2017-03-18T07:10:03.351Z,280
2017-03-18T07:11:04.002Z,408
2017-03-18T07:12:03.433Z,372
2017-03-18T07:13:03.427Z,312
2017-03-18T07:14:04.020Z,336
2017-03-18T07:15:03.484Z,348
2017-03-18T07:16:03.514Z,364
2017-03-18T07:17:04.158Z,360
2017-03-18T07:18:03.876Z,340
2017-03-18T07:19:04.163Z,368
2017-03-18T07:20:04.245Z,376
2017-03-18T07:21:04.270Z,328
2017-03-18T07:22:03.366Z,348
2017-03-18T07:23:04.319Z,340
2017-03-18T07:24:04.294Z,292
2017-03-18T07:25:04.060Z,284
2017-03-18T07:26:03.781Z,380
2017-03-18T07:27:04.125Z,304
2017-03-18T07:28:04.471Z,312
2017-03-18T07:29:04.430Z,300
2017-03-18T07:30:04.208Z,352
2017-03-18T07:31:03.921Z,320
2017-03-18T07:32:04.255Z,312
2017-03-18T07:33:04.595Z,328
2017-03-18T07:34:04.875Z,284
2017-03-18T07:35:04.027Z,324
2017-03-18T07:36:04.672Z,276
2017-03-18T07:37:04.709Z,296
2017-03-18T07:38:04.106Z,320
2017-03-18T07:39:04.387Z,336
2017-03-18T07:40:04.798Z,272
2017-03-18T07:41:04.500Z,300
2017-03-18T07:42:04.849Z,304
2017-03-18T07:43:04.874Z,288
2017-03-18T07:44:04.511Z,288
2017-03-18T07:45:04.615Z,388
2017-03-18T07:46:04.952Z,340
2017-03-18T07:47:04.353Z,456
2017-03-18T07:48:05.006Z,444
2017-03-18T07:49:04.990Z,404
2017-03-18T07:50:04.435Z,396
2017-03-18T07:51:04.468Z,396
2017-03-18T07:52:04.489Z,416
2017-03-18T07:53:04.517Z,364
2017-03-18T07:54:05.426Z,384
2017-03-18T07:55:05.187Z,344
2017-03-18T07:56:05.223Z,440
2017-03-18T07:57:04.944Z,484
2017-03-18T07:58:04.956Z,624
2017-03-18T07:59:04.939Z,780
2017-03-18T08:00:05.335Z,888
2017-03-18T08:01:05.043Z,740
2017-03-18T08:02:05.388Z,656
2017-03-18T08:03:05.102Z,824
2017-03-18T08:04:05.381Z,912
2017-03-18T08:05:05.158Z,940
2017-03-18T08:06:04.876Z,696
2017-03-18T08:07:05.519Z,768
2017-03-18T08:08:05.548Z,816
2017-03-18T08:09:05.197Z,812
2017-03-18T08:10:05.602Z,1152
2017-03-18T08:11:04.999Z,828
2017-03-18T08:12:05.348Z,768
2017-03-18T08:13:05.689Z,1060
2017-03-18T08:14:05.330Z,864
2017-03-18T08:15:05.433Z,812
2017-03-18T08:16:05.480Z,712
2017-03-18T08:17:04.855Z,764
2017-03-18T08:18:05.512Z,732
2017-03-18T08:19:05.477Z,760
2017-03-18T08:20:05.568Z,800
2017-03-18T08:21:05.598Z,940
2017-03-18T08:22:05.306Z,680
2017-03-18T08:23:05.964Z,728
2017-03-18T08:24:06.241Z,612
2017-03-18T08:25:06.022Z,756
2017-03-18T08:26:06.062Z,608
2017-03-18T08:27:06.066Z,628
2017-03-18T08:28:06.116Z,596
2017-03-18T08:29:06.373Z,528
2017-03-18T08:30:06.144Z,496
2017-03-18T08:31:06.178Z,652
2017-03-18T08:32:05.887Z,672
2017-03-18T08:33:06.238Z,844
2017-03-18T08:34:05.884Z,788
2017-03-18T08:35:06.289Z,816
2017-03-18T08:36:06.001Z,852
2017-03-18T08:37:06.022Z,880
2017-03-18T08:38:06.371Z,916
2017-03-18T08:39:06.028Z,776
2017-03-18T08:40:06.421Z,888
2017-03-18T08:41:06.134Z,936
2017-03-18T08:42:05.543Z,804
2017-03-18T08:43:06.523Z,888
2017-03-18T08:44:06.782Z,988
2017-03-18T08:45:05.937Z,972
2017-03-18T08:46:06.587Z,816
2017-03-18T08:47:06.626Z,904
2017-03-18T08:48:06.015Z,952
2017-03-18T08:49:06.307Z,856
2017-03-18T08:50:06.689Z,880
2017-03-18T08:51:06.721Z,896
2017-03-18T08:52:06.438Z,912
2017-03-18T08:53:06.462Z,924
2017-03-18T08:54:06.745Z,1036
2017-03-18T08:55:06.828Z,1008
2017-03-18T08:56:06.228Z,1196
2017-03-18T08:57:06.265Z,1284
2017-03-18T08:58:06.606Z,1108
2017-03-18T08:59:07.191Z,1308
2017-03-18T09:00:06.367Z,1444
2017-03-18T09:01:06.678Z,1200
2017-03-18T09:02:06.085Z,1008
2017-03-18T09:03:06.739Z,1352
2017-03-18T09:04:06.438Z,1172
2017-03-18T09:05:06.474Z,1320
2017-03-18T09:06:07.123Z,1232
2017-03-18T09:07:06.849Z,1108
2017-03-18T09:08:06.871Z,1240
2017-03-18T09:09:07.208Z,1288
2017-03-18T09:10:07.223Z,1212
2017-03-18T09:11:07.274Z,1212
2017-03-18T09:12:07.289Z,1328
2017-03-18T09:13:06.690Z,1040
2017-03-18T09:14:07.040Z,1116
2017-03-18T09:15:07.374Z,1032
2017-03-18T09:16:07.408Z,1044
2017-03-18T09:17:06.796Z,916
2017-03-18T09:18:07.457Z,996
2017-03-18T09:19:07.171Z,828
2017-03-18T09:20:07.505Z,812
2017-03-18T09:21:06.912Z,800
2017-03-18T09:22:07.268Z,772
2017-03-18T09:23:07.282Z,844
2017-03-18T09:24:07.302Z,812
2017-03-18T09:25:07.369Z,860
2017-03-18T09:26:07.047Z,824
2017-03-18T09:27:07.076Z,768
2017-03-18T09:28:07.097Z,816
2017-03-18T09:29:07.758Z,912
2017-03-18T09:30:07.464Z,860
2017-03-18T09:31:07.795Z,836
2017-03-18T09:32:07.836Z,940
2017-03-18T09:33:07.550Z,736
2017-03-18T09:34:07.894Z,896
2017-03-18T09:35:07.287Z,820
2017-03-18T09:36:07.635Z,824
2017-03-18T09:37:07.676Z,820
2017-03-18T09:38:07.997Z,868
2017-03-18T09:39:08.034Z,872
2017-03-18T09:40:07.428Z,744
2017-03-18T09:41:07.446Z,920
2017-03-18T09:42:07.796Z,900
2017-03-18T09:43:07.826Z,1152
2017-03-18T09:44:07.546Z,1076
2017-03-18T09:45:08.123Z,1140
2017-03-18T09:46:08.210Z,1312
2017-03-18T09:47:08.235Z,1280
2017-03-18T09:48:08.265Z,1432
2017-03-18T09:49:07.669Z,1440
2017-03-18T09:50:08.570Z,1284
2017-03-18T09:51:08.372Z,1180
2017-03-18T09:52:08.386Z,1208
2017-03-18T09:53:07.780Z,1256
2017-03-18T09:54:08.423Z,1136
2017-03-18T09:55:08.389Z,1316
2017-03-18T09:56:08.169Z,956
2017-03-18T09:57:08.515Z,1224
2017-03-18T09:58:08.553Z,1212
2017-03-18T09:59:07.629Z,1048
2017-03-18T10:00:08.228Z,952
2017-03-18T10:01:08.613Z,920
2017-03-18T10:02:08.047Z,984
2017-03-18T10:03:08.362Z,1040
2017-03-18T10:04:08.084Z,912
2017-03-18T10:05:08.973Z,988
2017-03-18T10:06:08.454Z,1004
2017-03-18T10:07:08.463Z,988
2017-03-18T10:08:08.512Z,964
2017-03-18T10:09:08.840Z,1140
2017-03-18T10:10:09.113Z,1128
2017-03-18T10:11:08.889Z,988
2017-03-18T10:12:08.611Z,1088
2017-03-18T10:13:08.316Z,1152
2017-03-18T10:14:08.669Z,1140
2017-03-18T10:15:09.253Z,1300
2017-03-18T10:16:08.708Z,1204
2017-03-18T10:17:09.051Z,1256
2017-03-18T10:18:08.768Z,1036
2017-03-18T10:19:09.112Z,788
2017-03-18T10:20:09.067Z,840
2017-03-18T10:21:08.850Z,868
2017-03-18T10:22:08.251Z,1096
2017-03-18T10:23:09.219Z,1056
2017-03-18T10:24:08.948Z,1168
2017-03-18T10:25:09.205Z,1268
2017-03-18T10:26:08.673Z,1504
2017-03-18T10:27:09.005Z,2320
2017-03-18T10:28:09.040Z,1692
2017-03-18T10:29:09.381Z,1404
2017-03-18T10:30:09.347Z,1216
2017-03-18T10:31:09.426Z,1176
2017-03-18T10:32:09.458Z,1260
2017-03-18T10:33:09.176Z,1320
2017-03-18T10:34:09.205Z,1116
2017-03-18T10:35:09.172Z,852
2017-03-18T10:36:09.560Z,828
2017-03-18T10:37:09.590Z,892
2017-03-18T10:38:09.614Z,1100
2017-03-18T10:39:09.334Z,1352
2017-03-18T10:40:09.932Z,1428
2017-03-18T10:41:09.701Z,1596
2017-03-18T10:42:09.725Z,1444
2017-03-18T10:43:09.145Z,1076
2017-03-18T10:44:09.783Z,980
2017-03-18T10:45:10.063Z,912
2017-03-18T10:46:09.208Z,868
2017-03-18T10:47:09.249Z,928
2017-03-18T10:48:09.582Z,948
2017-03-18T10:49:09.916Z,968
2017-03-18T10:50:10.192Z,988
2017-03-18T10:51:09.973Z,844
2017-03-18T10:52:10.017Z,908
2017-03-18T10:53:09.710Z,1236
2017-03-18T10:54:09.462Z,1464
2017-03-18T10:55:09.468Z,1388
2017-03-18T10:56:10.103Z,1576
2017-03-18T10:57:10.145Z,1660
2017-03-18T10:58:09.534Z,1652
2017-03-18T10:59:10.191Z,1592
2017-03-18T11:00:09.909Z,1232
2017-03-18T11:01:09.624Z,1388
2017-03-18T11:02:10.280Z,1664
2017-03-18T11:03:10.295Z,1584
2017-03-18T11:04:10.326Z,1576
2017-03-18T11:05:10.036Z,1716
2017-03-18T11:06:10.073Z,2588
2017-03-18T11:07:10.090Z,2040
2017-03-18T11:08:10.432Z,1844
2017-03-18T11:09:10.150Z,1332
2017-03-18T11:10:09.551Z,1368
2017-03-18T11:11:10.452Z,1112
2017-03-18T11:12:10.228Z,1520
2017-03-18T11:13:10.260Z,1164
2017-03-18T11:14:10.602Z,1528
2017-03-18T11:15:09.682Z,1124
2017-03-18T11:16:10.585Z,1124
2017-03-18T11:17:10.368Z,860
2017-03-18T11:18:10.393Z,844
2017-03-18T11:19:10.422Z,1204
2017-03-18T11:20:10.451Z,1036
2017-03-18T11:21:10.573Z,1104
2017-03-18T11:22:10.808Z,1032
2017-03-18T11:23:10.533Z,1236
2017-03-18T11:24:10.857Z,1216
2017-03-18T11:25:10.890Z,1312
2017-03-18T11:26:11.205Z,1372
2017-03-18T11:27:10.635Z,1252
2017-03-18T11:28:10.658Z,980
2017-03-18T11:29:11.030Z,972
2017-03-18T11:30:10.091Z,1108
2017-03-18T11:31:10.999Z,1392
2017-03-18T11:32:10.764Z,1912
2017-03-18T11:33:10.482Z,1672
2017-03-18T11:34:10.821Z,1356
2017-03-18T11:35:11.150Z,1144
2017-03-18T11:36:11.444Z,1280
2017-03-18T11:37:11.212Z,1324
2017-03-18T11:38:11.339Z,1412
2017-03-18T11:39:11.313Z,1404
2017-03-18T11:40:10.998Z,1348
2017-03-18T11:41:11.254Z,1476
2017-03-18T11:42:11.051Z,1100
2017-03-18T11:43:11.064Z,952
2017-03-18T11:44:11.092Z,1356
2017-03-18T11:45:11.448Z,1312
2017-03-18T11:46:11.398Z,1600
2017-03-18T11:47:11.176Z,1080
2017-03-18T11:48:11.520Z,1116
2017-03-18T11:49:11.538Z,968
2017-03-18T11:50:10.941Z,1372
2017-03-18T11:51:11.842Z,1224
2017-03-18T11:52:11.622Z,1128
2017-03-18T11:53:11.292Z,1268
2017-03-18T11:54:11.676Z,1204
2017-03-18T11:55:11.981Z,1128
2017-03-18T11:56:11.982Z,764
2017-03-18T11:57:11.454Z,996
2017-03-18T11:58:11.475Z,956
2017-03-18T11:59:11.500Z,1040
2017-03-18T12:00:11.824Z,892
2017-03-18T12:01:12.113Z,1436
2017-03-18T12:02:11.574Z,1608
2017-03-18T12:03:11.620Z,1980
2017-03-18T12:04:11.316Z,2060
2017-03-18T12:05:11.347Z,1632
2017-03-18T12:06:11.609Z,1476
2017-03-18T12:07:11.425Z,1612
2017-03-18T12:08:11.743Z,1744
2017-03-18T12:09:11.764Z,1388
2017-03-18T12:10:11.788Z,1556
2017-03-18T12:11:11.761Z,1512
2017-03-18T12:12:11.842Z,1348
2017-03-18T12:13:11.898Z,1460
2017-03-18T12:14:12.236Z,1408
2017-03-18T12:15:11.612Z,1504
2017-03-18T12:16:11.912Z,1384
2017-03-18T12:17:12.006Z,1696
2017-03-18T12:18:12.011Z,1376
2017-03-18T12:19:11.727Z,1324
2017-03-18T12:20:11.436Z,1748
2017-03-18T12:21:12.347Z,1952
2017-03-18T12:22:12.438Z,2000
2017-03-18T12:23:12.151Z,1724
2017-03-18T12:24:12.485Z,1400
2017-03-18T12:25:12.520Z,1416
2017-03-18T12:26:12.784Z,1492
2017-03-18T12:27:12.561Z,1552
2017-03-18T12:28:11.966Z,1344
2017-03-18T12:29:12.003Z,1484
2017-03-18T12:30:12.344Z,1548
2017-03-18T12:31:12.048Z,1732
2017-03-18T12:32:11.769Z,1916
2017-03-18T12:33:12.411Z,1696
2017-03-18T12:34:12.455Z,1604
2017-03-18T12:35:12.492Z,1616
2017-03-18T12:36:12.179Z,1924
2017-03-18T12:37:12.522Z,1684
2017-03-18T12:38:12.551Z,1440
2017-03-18T12:39:11.988Z,1512
2017-03-18T12:40:12.607Z,1432
2017-03-18T12:41:12.633Z,1452
2017-03-18T12:42:12.661Z,1996
2017-03-18T12:43:12.686Z,1720
2017-03-18T12:44:13.039Z,2116
2017-03-18T12:45:13.055Z,1544
2017-03-18T12:46:13.080Z,1584
2017-03-18T12:47:12.472Z,1488
2017-03-18T12:48:13.142Z,1524
2017-03-18T12:49:12.914Z,1732
2017-03-18T12:50:12.567Z,1564
2017-03-18T12:51:12.899Z,1256
2017-03-18T12:52:12.929Z,1456
2017-03-18T12:53:12.971Z,2140
2017-03-18T12:54:13.298Z,1884
2017-03-18T12:55:12.385Z,1820
2017-03-18T12:56:13.040Z,1908
2017-03-18T12:57:13.376Z,1824
2017-03-18T12:58:12.808Z,1856
2017-03-18T12:59:13.438Z,1924
2017-03-18T13:00:13.146Z,1536
2017-03-18T13:01:12.863Z,1948
2017-03-18T13:02:13.515Z,2052
2017-03-18T13:03:13.542Z,1628
2017-03-18T13:04:13.573Z,1696
2017-03-18T13:05:13.282Z,1916
2017-03-18T13:06:12.995Z,1632
2017-03-18T13:07:13.029Z,1724
2017-03-18T13:08:13.056Z,1860
2017-03-18T13:09:13.714Z,1548
2017-03-18T13:10:13.418Z,1796
2017-03-18T13:11:13.789Z,1768
2017-03-18T13:12:13.152Z,1988
2017-03-18T13:13:13.505Z,1988
2017-03-18T13:14:13.530Z,1712
2017-03-18T13:15:13.267Z,1712
2017-03-18T13:16:13.583Z,2216
2017-03-18T13:17:13.860Z,2284
2017-03-18T13:18:13.641Z,2176
2017-03-18T13:19:13.664Z,1788
2017-03-18T13:20:13.694Z,1844
2017-03-18T13:21:13.723Z,2084
2017-03-18T13:22:14.312Z,1828
2017-03-18T13:23:13.780Z,1448
2017-03-18T13:24:14.122Z,1388
2017-03-18T13:25:13.517Z,1520
2017-03-18T13:26:13.855Z,1460
2017-03-18T13:27:14.452Z,1184
2017-03-18T13:28:14.257Z,1156
2017-03-18T13:29:13.941Z,1532
2017-03-18T13:30:14.278Z,1448
2017-03-18T13:31:14.303Z,1524
2017-03-18T13:32:13.964Z,1448
2017-03-18T13:33:13.742Z,1496
2017-03-18T13:34:14.400Z,1548
2017-03-18T13:35:14.118Z,1784
2017-03-18T13:36:14.451Z,1848
2017-03-18T13:37:14.405Z,1996
2017-03-18T13:38:14.187Z,1932
2017-03-18T13:39:14.217Z,1628
2017-03-18T13:40:14.233Z,1544
2017-03-18T13:41:14.583Z,1808
2017-03-18T13:42:14.559Z,2016
2017-03-18T13:43:14.641Z,1620
2017-03-18T13:44:14.362Z,1624
2017-03-18T13:45:14.702Z,1464
2017-03-18T13:46:14.403Z,1556
2017-03-18T13:47:15.007Z,1580
2017-03-18T13:48:14.473Z,1716
2017-03-18T13:49:14.181Z,1696
2017-03-18T13:50:14.553Z,1696
2017-03-18T13:51:14.548Z,1560
2017-03-18T13:52:14.543Z,1772
2017-03-18T13:53:14.920Z,1720
2017-03-18T13:54:14.641Z,1640
2017-03-18T13:55:14.033Z,1432
2017-03-18T13:56:14.995Z,1644
2017-03-18T13:57:15.284Z,1748
2017-03-18T13:58:14.424Z,1744
2017-03-18T13:59:14.457Z,1872
2017-03-18T14:00:14.483Z,1444
2017-03-18T14:01:15.134Z,1216
2017-03-18T14:02:15.407Z,1164
2017-03-18T14:03:15.189Z,1184